National Weather Service Raw Text Product

Displaying AFOS PIL: TAFDSM Received: 2018-06-14 11:27 UTC


336 
FTUS43 KDMX 141127
TAFDSM
TAF
KDSM 141127Z 1412/1512 13010KT P6SM VCTS BKN035CB
      TEMPO 1412/1413 3SM TSRA BR BKN025CB
     FM141500 16013G19KT P6SM SCT040 BKN110
     FM150200 16012KT P6SM FEW250
     FM150600 17010KT P6SM FEW250 WS020/21040KT=